createdAt,value
2023-04-21T00:01:30.363Z,28.27
2023-04-21T00:03:33.929Z,27.70
2023-04-21T00:05:35.903Z,25.40
2023-04-21T00:07:38.367Z,27.77
2023-04-21T00:09:40.540Z,27.50
2023-04-21T00:11:42.418Z,26.40
2023-04-21T00:13:44.338Z,25.90
2023-04-21T00:15:45.988Z,27.23
2023-04-21T00:17:47.721Z,24.10
2023-04-21T00:19:49.524Z,25.43
2023-04-21T00:21:51.331Z,25.30
2023-04-21T00:23:52.945Z,24.73
2023-04-21T00:25:54.747Z,26.70
2023-04-21T00:27:56.493Z,28.07
2023-04-21T00:29:58.176Z,26.90
2023-04-21T00:32:01.871Z,29.57
2023-04-21T00:34:03.745Z,30.60
2023-04-21T00:36:05.738Z,29.50
2023-04-21T00:38:07.393Z,29.17
2023-04-21T00:40:09.936Z,29.73
2023-04-21T00:42:11.624Z,27.70
2023-04-21T00:44:13.243Z,28.40
2023-04-21T00:46:15.439Z,29.60
2023-04-21T00:48:17.311Z,29.07
2023-04-21T00:50:19.028Z,30.23
2023-04-21T00:52:21.052Z,25.60
2023-04-21T00:54:25.540Z,27.80
2023-04-21T00:56:30.668Z,26.43
2023-04-21T00:58:33.988Z,27.30
2023-04-21T01:00:36.428Z,28.57
2023-04-21T01:02:39.857Z,28.47
2023-04-21T01:04:42.070Z,29.37
2023-04-21T01:06:45.238Z,29.77
2023-04-21T01:08:47.141Z,29.73
2023-04-21T01:10:48.811Z,30.07
2023-04-21T01:12:50.490Z,30.03
2023-04-21T01:14:52.192Z,26.23
2023-04-21T01:16:54.000Z,25.27
2023-04-21T01:18:56.136Z,27.67
2023-04-21T01:20:58.468Z,27.10
2023-04-21T01:23:00.447Z,25.73
2023-04-21T01:25:02.156Z,26.23
2023-04-21T01:27:04.306Z,29.60
2023-04-21T01:29:05.964Z,30.20
2023-04-21T01:31:07.750Z,28.37
2023-04-21T01:33:09.559Z,29.23
2023-04-21T01:35:11.360Z,28.90
2023-04-21T01:37:18.734Z,27.67
2023-04-21T01:39:20.726Z,28.50
2023-04-21T01:41:22.479Z,28.03
2023-04-21T01:43:26.039Z,28.00
2023-04-21T01:45:27.745Z,27.43
2023-04-21T01:47:29.661Z,26.07
2023-04-21T01:49:31.477Z,28.57
2023-04-21T01:51:33.182Z,28.77
2023-04-21T01:53:34.854Z,28.27
2023-04-21T01:55:36.587Z,25.80
2023-04-21T01:57:38.440Z,27.00
2023-04-21T01:59:40.251Z,24.80
2023-04-21T02:01:41.949Z,26.50
2023-04-21T02:03:44.165Z,27.60
2023-04-21T02:05:45.922Z,26.60
2023-04-21T02:07:47.663Z,27.20
2023-04-21T02:09:49.335Z,25.70
2023-04-21T02:11:51.046Z,28.13
2023-04-21T02:13:54.136Z,26.90
2023-04-21T02:16:09.612Z,27.70
2023-04-21T02:18:14.868Z,26.70
2023-04-21T02:20:16.657Z,27.87
2023-04-21T02:22:18.651Z,28.70
2023-04-21T02:24:20.524Z,30.30
2023-04-21T02:26:22.261Z,29.33
2023-04-21T02:28:24.085Z,29.67
2023-04-21T02:30:26.159Z,27.13
2023-04-21T02:32:28.471Z,29.70
2023-04-21T02:34:30.170Z,27.40
2023-04-21T02:36:32.168Z,26.47
2023-04-21T02:38:33.814Z,30.20
2023-04-21T02:40:35.807Z,28.27
2023-04-21T02:42:37.525Z,29.70
2023-04-21T02:44:39.274Z,32.80
2023-04-21T02:46:41.875Z,33.77
2023-04-21T02:48:43.605Z,32.10
2023-04-21T02:50:45.404Z,32.90
2023-04-21T02:52:47.112Z,31.73
2023-04-21T02:54:48.723Z,34.17
2023-04-21T02:56:50.600Z,32.70
2023-04-21T02:58:52.396Z,30.70
2023-04-21T03:00:54.072Z,28.87
2023-04-21T03:02:56.038Z,31.00
2023-04-21T03:04:58.266Z,30.00
2023-04-21T03:06:59.954Z,31.30
2023-04-21T03:09:01.658Z,31.83
2023-04-21T03:11:03.536Z,30.90
2023-04-21T03:13:05.384Z,30.70
2023-04-21T03:15:07.359Z,29.93
2023-04-21T03:17:09.144Z,31.00
2023-04-21T03:19:10.936Z,32.43
2023-04-21T03:21:12.579Z,32.73
2023-04-21T03:23:14.298Z,30.80
2023-04-21T03:25:16.113Z,32.97
2023-04-21T03:27:17.832Z,33.90
2023-04-21T03:29:19.829Z,31.23
2023-04-21T03:31:21.809Z,32.47
2023-04-21T03:33:23.644Z,31.90
2023-04-21T03:35:25.390Z,32.27
2023-04-21T03:37:27.129Z,31.97
2023-04-21T03:39:28.879Z,31.73
2023-04-21T03:41:30.565Z,34.43
2023-04-21T03:43:32.340Z,33.10
2023-04-21T03:45:35.925Z,32.20
2023-04-21T03:47:37.930Z,33.73
2023-04-21T03:49:39.646Z,34.17
2023-04-21T03:51:41.311Z,31.60
2023-04-21T03:53:43.033Z,32.13
2023-04-21T03:55:48.613Z,33.33
2023-04-21T03:57:50.231Z,33.43
2023-04-21T03:59:51.989Z,34.07
2023-04-21T04:01:53.640Z,32.30
2023-04-21T04:03:55.563Z,34.87
2023-04-21T04:05:57.339Z,36.10
2023-04-21T04:07:59.053Z,34.13
2023-04-21T04:10:00.724Z,32.93
2023-04-21T04:12:03.378Z,33.60
2023-04-21T04:14:05.103Z,32.70
2023-04-21T04:16:07.337Z,32.40
2023-04-21T04:18:09.038Z,34.90
2023-04-21T04:20:10.814Z,36.10
2023-04-21T04:22:12.530Z,33.27
2023-04-21T04:24:14.279Z,32.20
2023-04-21T04:26:16.132Z,31.20
2023-04-21T04:28:17.832Z,33.17
2023-04-21T04:30:19.612Z,32.50
2023-04-21T04:32:21.752Z,34.10
2023-04-21T04:34:23.553Z,32.63
2023-04-21T04:36:25.228Z,28.20
2023-04-21T04:38:28.376Z,28.27
2023-04-21T04:40:30.540Z,28.07
2023-04-21T04:42:36.721Z,26.80
2023-04-21T04:44:38.574Z,26.77
2023-04-21T04:46:40.711Z,26.63
2023-04-21T04:48:42.475Z,24.40
2023-04-21T04:50:44.722Z,25.00
2023-04-21T04:52:47.510Z,25.73
2023-04-21T04:54:49.201Z,26.60
2023-04-21T04:56:50.831Z,30.50
2023-04-21T04:58:52.637Z,33.43
2023-04-21T05:00:54.577Z,34.00
2023-04-21T05:02:56.518Z,34.70
2023-04-21T05:04:58.427Z,34.17
2023-04-21T05:07:00.238Z,34.60
2023-04-21T05:09:02.933Z,34.80
2023-04-21T05:11:04.768Z,34.50
2023-04-21T05:13:06.968Z,34.10
2023-04-21T05:15:09.284Z,35.43
2023-04-21T05:17:10.975Z,37.87
2023-04-21T05:19:12.659Z,36.00
2023-04-21T05:21:14.309Z,33.03
2023-04-21T05:23:16.197Z,33.80
2023-04-21T05:25:17.908Z,31.17
2023-04-21T05:27:19.715Z,30.97
2023-04-21T05:29:21.456Z,32.20
2023-04-21T05:31:23.883Z,30.37
2023-04-21T05:33:26.870Z,33.07
2023-04-21T05:35:31.025Z,32.33
2023-04-21T05:37:32.744Z,31.07
2023-04-21T05:39:34.486Z,33.37
2023-04-21T05:41:36.172Z,30.50
2023-04-21T05:43:38.009Z,30.80
2023-04-21T05:45:41.053Z,26.57
2023-04-21T05:47:42.836Z,29.40
2023-04-21T05:49:50.101Z,29.17
2023-04-21T05:51:52.112Z,28.57
2023-04-21T05:53:53.798Z,27.90
2023-04-21T05:55:55.449Z,26.07
2023-04-21T05:57:57.170Z,21.50
2023-04-21T05:59:58.819Z,22.00
2023-04-21T06:02:00.669Z,22.07
2023-04-21T06:04:02.640Z,19.40
2023-04-21T06:06:06.152Z,18.37
2023-04-21T06:08:07.978Z,18.63
2023-04-21T06:10:12.865Z,20.10
2023-04-21T06:12:14.602Z,20.17
2023-04-21T06:14:16.278Z,18.83
2023-04-21T06:16:17.983Z,18.50
2023-04-21T06:18:19.689Z,16.53
2023-04-21T06:20:21.337Z,16.50
2023-04-21T06:22:23.859Z,15.20
2023-04-21T06:24:25.857Z,14.10
2023-04-21T06:26:27.691Z,14.80
2023-04-21T06:28:29.414Z,14.03
2023-04-21T06:30:31.204Z,14.07
2023-04-21T06:32:32.904Z,14.57
2023-04-21T06:34:35.468Z,13.80
2023-04-21T06:36:37.271Z,14.60
2023-04-21T06:38:41.570Z,14.10
2023-04-21T06:40:43.525Z,13.60
2023-04-21T06:42:45.194Z,13.40
2023-04-21T06:44:48.766Z,12.10
2023-04-21T06:46:51.345Z,12.17
2023-04-21T06:48:53.040Z,12.80
2023-04-21T06:50:54.945Z,12.23
2023-04-21T06:52:56.648Z,11.17
2023-04-21T06:54:58.408Z,11.90
2023-04-21T06:57:00.243Z,9.20
2023-04-21T06:59:01.908Z,12.23
2023-04-21T07:01:03.784Z,9.97
2023-04-21T07:03:06.390Z,10.77
2023-04-21T07:05:08.330Z,9.90
2023-04-21T07:07:09.976Z,8.80
2023-04-21T07:09:11.618Z,7.10
2023-04-21T07:11:13.239Z,6.80
2023-04-21T07:13:15.894Z,6.27
2023-04-21T07:15:17.636Z,6.53
2023-04-21T07:17:19.313Z,7.00
2023-04-21T07:19:21.251Z,7.00
2023-04-21T07:21:22.994Z,7.30
2023-04-21T07:23:24.659Z,10.50
2023-04-21T07:25:26.336Z,9.50
2023-04-21T07:27:27.986Z,7.97
2023-04-21T07:29:29.799Z,7.97
2023-04-21T07:31:31.458Z,8.43
2023-04-21T07:33:33.210Z,7.93
2023-04-21T07:35:35.002Z,8.50
2023-04-21T07:37:36.689Z,7.80
2023-04-21T07:39:38.322Z,7.67
2023-04-21T07:41:40.246Z,7.80
2023-04-21T07:43:42.051Z,9.90
2023-04-21T07:45:45.407Z,7.00
2023-04-21T07:47:47.302Z,6.70
2023-04-21T07:49:49.107Z,7.70
2023-04-21T07:51:50.779Z,6.63
2023-04-21T07:53:52.555Z,6.80
2023-04-21T07:55:54.544Z,7.83
2023-04-21T07:57:56.570Z,6.73
2023-04-21T07:59:58.219Z,5.53
2023-04-21T08:02:00.644Z,5.50
2023-04-21T08:04:02.588Z,5.00
2023-04-21T08:06:05.065Z,4.87
2023-04-21T08:08:07.424Z,5.63
2023-04-21T08:10:09.856Z,4.90
2023-04-21T08:12:11.491Z,4.90
2023-04-21T08:14:13.572Z,4.97
2023-04-21T08:16:15.511Z,5.97
2023-04-21T08:18:21.228Z,5.00
2023-04-21T08:20:24.234Z,5.93
2023-04-21T08:22:26.145Z,5.73
2023-04-21T08:24:27.920Z,5.57
2023-04-21T08:26:30.279Z,5.27
2023-04-21T08:28:31.986Z,6.23
2023-04-21T08:30:33.951Z,4.93
2023-04-21T08:32:35.839Z,4.80
2023-04-21T08:34:37.726Z,4.13
2023-04-21T08:36:39.472Z,4.97
2023-04-21T08:38:43.951Z,4.97
2023-04-21T08:40:45.920Z,4.97
2023-04-21T08:42:48.783Z,4.50
2023-04-21T08:44:50.926Z,5.13
2023-04-21T08:46:55.351Z,4.27
2023-04-21T08:48:58.470Z,4.37
2023-04-21T08:51:00.173Z,4.47
2023-04-21T08:53:01.874Z,4.77
2023-04-21T08:55:04.854Z,5.07
2023-04-21T08:57:15.249Z,5.13
2023-04-21T08:59:17.545Z,5.30
2023-04-21T09:01:19.681Z,4.93
2023-04-21T09:03:26.275Z,5.40
2023-04-21T09:05:30.797Z,4.10
2023-04-21T09:07:38.431Z,4.70
2023-04-21T09:09:54.136Z,4.67
2023-04-21T09:11:59.830Z,4.03
2023-04-21T09:14:01.518Z,4.37
2023-04-21T09:16:08.257Z,5.33
2023-04-21T09:18:15.093Z,5.40
2023-04-21T09:20:20.156Z,5.47
2023-04-21T09:22:27.386Z,5.20
2023-04-21T09:24:29.071Z,6.50
2023-04-21T09:26:30.963Z,5.50
2023-04-21T09:28:33.177Z,5.23
2023-04-21T09:30:39.178Z,5.70
2023-04-21T09:32:41.577Z,6.20
2023-04-21T09:34:44.275Z,5.90
2023-04-21T09:36:47.560Z,6.40
2023-04-21T09:41:08.556Z,5.67
2023-04-21T09:43:11.735Z,6.33
2023-04-21T09:45:32.812Z,6.90
2023-04-21T09:47:42.581Z,7.47
2023-04-21T09:49:45.388Z,7.80
2023-04-21T09:53:57.969Z,6.93
2023-04-21T09:56:01.077Z,6.87
2023-04-21T09:58:05.364Z,6.97
2023-04-21T10:00:09.766Z,7.80
2023-04-21T10:02:12.915Z,7.57
2023-04-21T10:04:15.919Z,6.87
2023-04-21T10:06:18.227Z,7.70
2023-04-21T10:08:20.255Z,7.97
2023-04-21T10:10:31.855Z,7.90
2023-04-21T10:12:33.941Z,8.30
2023-04-21T10:14:36.234Z,8.23
2023-04-21T10:16:38.331Z,8.00
2023-04-21T10:18:45.567Z,6.60
2023-04-21T10:20:56.803Z,8.20
2023-04-21T10:22:58.757Z,8.20
2023-04-21T10:25:02.651Z,7.83
2023-04-21T10:27:04.437Z,7.17
2023-04-21T10:29:07.667Z,7.77
2023-04-21T10:31:24.135Z,6.53
2023-04-21T10:33:27.532Z,7.20
2023-04-21T10:36:00.204Z,7.47
2023-04-21T10:38:01.920Z,6.77
2023-04-21T10:40:09.340Z,6.30
2023-04-21T10:42:14.011Z,7.60
2023-04-21T10:44:16.684Z,6.60
2023-04-21T10:46:37.701Z,7.97
2023-04-21T10:48:39.508Z,6.33
2023-04-21T10:50:41.256Z,7.17
2023-04-21T10:52:47.441Z,6.37
2023-04-21T10:54:50.198Z,7.00
2023-04-21T10:56:58.268Z,5.57
2023-04-21T10:59:01.146Z,6.37
2023-04-21T11:01:03.316Z,6.30
2023-04-21T11:03:07.177Z,5.30
2023-04-21T11:05:09.851Z,6.60
2023-04-21T11:07:18.869Z,6.80
2023-04-21T11:09:20.820Z,6.70
2023-04-21T11:11:27.039Z,5.90
2023-04-21T11:13:34.814Z,6.03
2023-04-21T11:15:36.455Z,6.43
2023-04-21T11:17:39.903Z,6.17
2023-04-21T11:19:44.964Z,5.30
2023-04-21T11:21:49.108Z,5.70
2023-04-21T11:23:55.569Z,5.00
2023-04-21T11:25:59.673Z,5.93
2023-04-21T11:28:01.314Z,6.13
2023-04-21T11:30:04.015Z,5.83
2023-04-21T11:32:09.220Z,6.27
2023-04-21T11:34:11.238Z,6.00
2023-04-21T11:36:13.390Z,7.40
2023-04-21T11:38:15.966Z,5.77
2023-04-21T11:40:18.270Z,6.00
2023-04-21T11:42:22.810Z,6.77
2023-04-21T11:44:50.844Z,6.30
2023-04-21T11:46:52.573Z,6.30
2023-04-21T11:49:08.136Z,5.17
2023-04-21T11:51:19.316Z,6.00
2023-04-21T11:53:22.333Z,5.50
2023-04-21T11:55:24.263Z,5.73
2023-04-21T11:57:27.817Z,5.77
2023-04-21T11:59:29.613Z,5.03
2023-04-21T12:01:31.426Z,5.93
2023-04-21T12:03:33.307Z,5.70
2023-04-21T12:05:36.592Z,6.10
2023-04-21T12:07:39.436Z,6.20
2023-04-21T12:09:41.163Z,5.93
2023-04-21T12:11:43.021Z,6.33
2023-04-21T12:13:45.953Z,6.50
2023-04-21T12:15:49.125Z,5.80
2023-04-21T12:17:55.373Z,5.17
2023-04-21T12:20:06.360Z,5.43
2023-04-21T12:22:18.118Z,6.20
2023-04-21T12:24:19.768Z,5.80
2023-04-21T12:26:22.780Z,5.90
2023-04-21T12:28:24.472Z,4.80
2023-04-21T12:30:26.148Z,5.43
2023-04-21T12:32:27.935Z,5.53
2023-04-21T12:34:29.567Z,5.90
2023-04-21T12:36:31.747Z,5.50
2023-04-21T12:38:33.422Z,5.03
2023-04-21T12:40:35.601Z,5.83
2023-04-21T12:42:38.340Z,6.40
2023-04-21T12:44:40.780Z,5.17
2023-04-21T12:46:42.667Z,5.30
2023-04-21T12:48:44.443Z,6.00
2023-04-21T12:50:47.148Z,5.97
2023-04-21T12:52:51.432Z,5.60
2023-04-21T12:54:53.109Z,5.47
2023-04-21T12:56:54.736Z,5.70
2023-04-21T12:58:57.139Z,5.17
2023-04-21T13:00:59.060Z,4.37
2023-04-21T13:03:00.990Z,5.68
2023-04-21T13:05:04.918Z,4.47
2023-04-21T13:07:07.149Z,4.65
2023-04-21T13:09:09.040Z,4.72
2023-04-21T13:11:10.972Z,5.18
2023-04-21T13:13:12.672Z,4.80
2023-04-21T13:15:14.398Z,4.20
2023-04-21T13:17:16.460Z,4.82
2023-04-21T13:19:18.284Z,4.80
2023-04-21T13:21:19.983Z,4.70
2023-04-21T13:23:21.686Z,4.50
2023-04-21T13:25:23.502Z,4.90
2023-04-21T13:27:25.587Z,4.43
2023-04-21T13:29:30.240Z,5.28
2023-04-21T13:31:32.683Z,4.90
2023-04-21T13:33:35.257Z,4.15
2023-04-21T13:35:37.599Z,4.50
2023-04-21T13:37:40.634Z,4.65
2023-04-21T13:39:42.795Z,4.05
2023-04-21T13:41:44.445Z,3.70
2023-04-21T13:43:46.492Z,4.57
2023-04-21T13:45:49.906Z,4.70
2023-04-21T13:47:51.811Z,4.90
2023-04-21T13:49:53.541Z,5.10
2023-04-21T13:51:55.325Z,5.10
2023-04-21T13:53:57.072Z,6.10
2023-04-21T13:55:59.507Z,4.80
2023-04-21T13:58:01.796Z,4.40
2023-04-21T14:00:06.614Z,4.50
2023-04-21T14:02:08.720Z,4.67
2023-04-21T14:04:10.952Z,4.60
2023-04-21T14:06:12.929Z,4.15
2023-04-21T14:08:14.597Z,3.90
2023-04-21T14:10:16.554Z,4.17
2023-04-21T14:12:18.836Z,3.20
2023-04-21T14:14:31.204Z,3.78
2023-04-21T14:16:39.434Z,4.22
2023-04-21T14:18:44.953Z,4.32
2023-04-21T14:20:46.676Z,3.85
2023-04-21T14:22:48.350Z,4.15
2023-04-21T14:24:50.288Z,4.22
2023-04-21T14:26:51.999Z,3.63
2023-04-21T14:28:53.706Z,3.63
2023-04-21T14:30:55.415Z,4.80
2023-04-21T14:32:57.101Z,3.80
2023-04-21T14:35:03.021Z,3.50
2023-04-21T14:37:04.713Z,3.57
2023-04-21T14:39:06.959Z,3.30
2023-04-21T14:41:09.320Z,3.95
2023-04-21T14:43:11.568Z,3.87
2023-04-21T14:45:13.620Z,3.03
2023-04-21T14:47:15.345Z,3.10
2023-04-21T14:49:17.153Z,3.40
2023-04-21T14:51:18.891Z,3.03
2023-04-21T14:53:21.141Z,2.70
2023-04-21T14:55:23.552Z,2.73
2023-04-21T14:57:25.410Z,2.80
2023-04-21T14:59:27.196Z,2.87
2023-04-21T15:01:29.017Z,2.83
2023-04-21T15:03:31.636Z,2.80
2023-04-21T15:05:34.825Z,3.20
2023-04-21T15:07:36.792Z,2.60
2023-04-21T15:09:39.237Z,3.67
2023-04-21T15:11:41.250Z,2.77
2023-04-21T15:13:43.400Z,2.90
2023-04-21T15:15:45.494Z,2.90
2023-04-21T15:17:47.283Z,3.40
2023-04-21T15:19:49.074Z,2.93
2023-04-21T15:21:50.984Z,2.83
2023-04-21T15:23:52.690Z,3.33
2023-04-21T15:25:54.726Z,2.90
2023-04-21T15:27:56.444Z,3.47
2023-04-21T15:29:58.395Z,3.27
2023-04-21T15:32:00.116Z,3.73
2023-04-21T15:34:02.251Z,3.67
2023-04-21T15:36:03.993Z,3.83
2023-04-21T15:38:06.435Z,2.93
2023-04-21T15:40:09.127Z,3.57
2023-04-21T15:42:10.888Z,4.00
2023-04-21T15:44:12.687Z,2.97
2023-04-21T15:46:14.346Z,2.93
2023-04-21T15:48:17.486Z,3.97
2023-04-21T15:50:19.238Z,3.30
2023-04-21T15:52:21.365Z,4.07
2023-04-21T15:54:23.645Z,3.40
2023-04-21T15:56:26.201Z,4.20
2023-04-21T15:58:27.937Z,3.67
2023-04-21T16:00:29.699Z,3.27
2023-04-21T16:02:32.121Z,3.60
2023-04-21T16:04:34.230Z,3.30
2023-04-21T16:06:36.356Z,4.00
2023-04-21T16:08:38.190Z,3.30
2023-04-21T16:10:39.855Z,3.30
2023-04-21T16:12:44.549Z,3.00
2023-04-21T16:14:57.114Z,3.57
2023-04-21T16:17:03.355Z,3.10
2023-04-21T16:19:05.377Z,3.80
2023-04-21T16:21:07.171Z,3.10
2023-04-21T16:23:09.610Z,3.27
2023-04-21T16:25:16.117Z,3.50
2023-04-21T16:27:17.915Z,3.23
2023-04-21T16:29:19.791Z,3.37
2023-04-21T16:31:21.954Z,3.80
2023-04-21T16:33:23.764Z,3.17
2023-04-21T16:35:25.549Z,3.70
2023-04-21T16:37:27.571Z,4.50
2023-04-21T16:39:29.225Z,3.87
2023-04-21T16:41:30.919Z,4.20
2023-04-21T16:43:32.706Z,4.30
2023-04-21T16:45:34.544Z,4.30
2023-04-21T16:47:42.018Z,4.37
2023-04-21T16:49:44.224Z,3.73
2023-04-21T16:51:46.319Z,3.60
2023-04-21T16:53:47.982Z,4.57
2023-04-21T16:55:49.883Z,4.00
2023-04-21T16:57:51.983Z,4.50
2023-04-21T16:59:54.118Z,3.43
2023-04-21T17:01:56.533Z,3.90
2023-04-21T17:03:58.556Z,4.00
2023-04-21T17:06:00.467Z,4.03
2023-04-21T17:08:02.243Z,4.60
2023-04-21T17:10:04.276Z,4.17
2023-04-21T17:12:06.279Z,4.60
2023-04-21T17:14:07.988Z,3.90
2023-04-21T17:16:09.773Z,3.53
2023-04-21T17:18:11.723Z,4.20
2023-04-21T17:20:14.335Z,4.00
2023-04-21T17:22:16.150Z,3.83
2023-04-21T17:24:17.831Z,4.33
2023-04-21T17:26:19.624Z,3.97
2023-04-21T17:28:21.367Z,3.27
2023-04-21T17:30:23.602Z,3.50
2023-04-21T17:32:25.820Z,3.80
2023-04-21T17:34:27.848Z,3.80
2023-04-21T17:36:29.992Z,3.90
2023-04-21T17:38:32.317Z,4.43
2023-04-21T17:40:34.288Z,4.10
2023-04-21T17:42:35.993Z,4.53
2023-04-21T17:44:37.986Z,3.47
2023-04-21T17:46:39.984Z,4.20
2023-04-21T17:48:41.734Z,5.13
2023-04-21T17:50:43.428Z,3.87
2023-04-21T17:52:45.079Z,4.23
2023-04-21T17:54:47.022Z,4.07
2023-04-21T17:56:48.651Z,4.00
2023-04-21T17:58:50.404Z,4.50
2023-04-21T18:00:52.296Z,3.90
2023-04-21T18:02:54.061Z,3.53
2023-04-21T18:04:56.137Z,4.60
2023-04-21T18:06:59.165Z,3.97
2023-04-21T18:09:01.117Z,4.50
2023-04-21T18:11:02.947Z,4.50
2023-04-21T18:13:06.050Z,4.30
2023-04-21T18:15:08.510Z,4.30
2023-04-21T18:17:10.365Z,4.73
2023-04-21T18:19:12.214Z,4.47
2023-04-21T18:21:14.776Z,4.93
2023-04-21T18:23:16.454Z,5.30
2023-04-21T18:25:27.289Z,4.80
2023-04-21T18:27:40.831Z,5.30
2023-04-21T18:29:42.455Z,5.67
2023-04-21T18:31:44.460Z,5.00
2023-04-21T18:33:46.164Z,5.13
2023-04-21T18:35:47.806Z,5.60
2023-04-21T18:37:49.533Z,4.87
2023-04-21T18:39:51.376Z,5.37
2023-04-21T18:41:53.038Z,4.90
2023-04-21T18:43:54.902Z,4.03
2023-04-21T18:45:56.615Z,5.03
2023-04-21T18:47:58.445Z,4.20
2023-04-21T18:50:00.292Z,5.13
2023-04-21T18:52:01.969Z,5.63
2023-04-21T18:54:05.104Z,5.60
2023-04-21T18:56:06.808Z,4.70
2023-04-21T18:58:08.722Z,4.50
2023-04-21T19:00:11.128Z,5.30
2023-04-21T19:02:13.597Z,5.57
2023-04-21T19:04:15.617Z,4.63
2023-04-21T19:06:17.417Z,4.70
2023-04-21T19:08:30.029Z,5.10
2023-04-21T19:10:37.446Z,5.30
2023-04-21T19:12:41.530Z,5.27
2023-04-21T19:14:47.464Z,4.60
2023-04-21T19:16:51.752Z,4.40
2023-04-21T19:18:53.801Z,5.07
2023-04-21T19:20:55.581Z,5.40
2023-04-21T19:22:57.266Z,5.30
2023-04-21T19:24:59.099Z,4.70
2023-04-21T19:27:02.387Z,5.00
2023-04-21T19:29:04.880Z,4.87
2023-04-21T19:31:07.177Z,4.57
2023-04-21T19:33:08.995Z,4.70
2023-04-21T19:35:11.026Z,4.83
2023-04-21T19:37:13.859Z,5.63
2023-04-21T19:39:15.658Z,5.30
2023-04-21T19:41:17.518Z,5.67
2023-04-21T19:43:20.964Z,4.37
2023-04-21T19:45:22.706Z,4.40
2023-04-21T19:47:24.484Z,4.40
2023-04-21T19:49:26.200Z,3.80
2023-04-21T19:51:27.926Z,3.47
2023-04-21T19:53:29.761Z,3.47
2023-04-21T19:55:32.068Z,3.17
2023-04-21T19:57:33.978Z,2.63
2023-04-21T19:59:35.903Z,3.30
2023-04-21T20:01:37.816Z,2.33
2023-04-21T20:03:39.727Z,2.40
2023-04-21T20:05:41.536Z,2.90
2023-04-21T20:07:43.506Z,2.60
2023-04-21T20:09:45.266Z,2.40
2023-04-21T20:11:46.915Z,2.57
2023-04-21T20:13:48.896Z,2.40
2023-04-21T20:15:50.577Z,2.60
2023-04-21T20:17:52.333Z,2.47
2023-04-21T20:19:54.889Z,1.97
2023-04-21T20:21:57.661Z,2.20
2023-04-21T20:23:59.354Z,2.10
2023-04-21T20:26:01.631Z,3.10
2023-04-21T20:28:03.314Z,2.10
2023-04-21T20:30:05.674Z,2.43
2023-04-21T20:32:07.659Z,3.10
2023-04-21T20:34:09.488Z,2.70
2023-04-21T20:36:11.822Z,3.13
2023-04-21T20:38:13.529Z,2.70
2023-04-21T20:40:15.755Z,3.30
2023-04-21T20:42:19.173Z,2.77
2023-04-21T20:44:23.105Z,3.03
2023-04-21T20:46:25.128Z,3.37
2023-04-21T20:48:27.010Z,3.50
2023-04-21T20:50:28.710Z,3.90
2023-04-21T20:52:30.799Z,5.47
2023-04-21T20:54:34.437Z,5.90
2023-04-21T20:56:36.242Z,6.07
2023-04-21T20:58:37.901Z,5.00
2023-04-21T21:00:39.798Z,4.50
2023-04-21T21:02:42.174Z,3.60
2023-04-21T21:04:44.047Z,3.77
2023-04-21T21:06:45.785Z,3.57
2023-04-21T21:08:47.446Z,4.30
2023-04-21T21:10:49.633Z,3.40
2023-04-21T21:12:51.539Z,2.97
2023-04-21T21:14:53.135Z,2.70
2023-04-21T21:16:55.539Z,2.50
2023-04-21T21:18:57.227Z,2.83
2023-04-21T21:20:59.128Z,2.33
2023-04-21T21:23:00.748Z,2.20
2023-04-21T21:25:02.431Z,2.70
2023-04-21T21:27:04.171Z,2.20
2023-04-21T21:29:06.640Z,2.20
2023-04-21T21:31:08.516Z,2.40
2023-04-21T21:33:10.294Z,2.53
2023-04-21T21:35:12.137Z,2.80
2023-04-21T21:37:14.170Z,2.50
2023-04-21T21:39:16.048Z,2.63
2023-04-21T21:41:19.724Z,2.67
2023-04-21T21:43:21.422Z,5.70
2023-04-21T21:45:23.213Z,6.57
2023-04-21T21:47:24.905Z,6.10
2023-04-21T21:49:26.668Z,4.73
2023-04-21T21:51:28.891Z,5.63
2023-04-21T21:53:30.671Z,7.47
2023-04-21T21:55:32.532Z,7.77
2023-04-21T21:57:34.674Z,5.57
2023-04-21T21:59:37.057Z,3.83
2023-04-21T22:01:39.068Z,2.67
2023-04-21T22:03:40.974Z,2.63
2023-04-21T22:05:42.836Z,1.87
2023-04-21T22:07:45.442Z,3.17
2023-04-21T22:09:47.254Z,2.20
2023-04-21T22:11:48.889Z,2.90
2023-04-21T22:13:51.342Z,2.30
2023-04-21T22:15:53.512Z,3.00
2023-04-21T22:17:55.420Z,2.63
2023-04-21T22:19:57.802Z,2.20
2023-04-21T22:21:59.603Z,2.23
2023-04-21T22:24:01.269Z,2.47
2023-04-21T22:26:03.310Z,2.63
2023-04-21T22:28:04.966Z,2.60
2023-04-21T22:30:07.394Z,2.63
2023-04-21T22:32:09.873Z,2.40
2023-04-21T22:34:15.076Z,2.93
2023-04-21T22:36:16.790Z,2.53
2023-04-21T22:38:18.536Z,2.40
2023-04-21T22:40:20.355Z,2.80
2023-04-21T22:42:22.294Z,3.17
2023-04-21T22:44:24.660Z,2.67
2023-04-21T22:46:26.682Z,2.10
2023-04-21T22:48:28.439Z,1.77
2023-04-21T22:50:30.115Z,1.90
2023-04-21T22:52:31.889Z,1.90
2023-04-21T22:54:33.683Z,1.80
2023-04-21T22:56:36.028Z,2.00
2023-04-21T22:58:37.748Z,2.50
2023-04-21T23:00:39.501Z,10.97
2023-04-21T23:02:41.262Z,21.13
2023-04-21T23:04:42.999Z,18.53
2023-04-21T23:06:44.667Z,5.93
2023-04-21T23:08:47.432Z,3.90
2023-04-21T23:10:49.230Z,2.50
2023-04-21T23:12:50.913Z,2.10
2023-04-21T23:14:52.544Z,3.03
2023-04-21T23:16:54.454Z,3.53
2023-04-21T23:18:56.538Z,2.90
2023-04-21T23:20:58.541Z,2.20
2023-04-21T23:23:00.357Z,1.97
2023-04-21T23:25:02.070Z,2.40
2023-04-21T23:27:03.824Z,2.10
2023-04-21T23:29:05.945Z,2.27
2023-04-21T23:31:07.773Z,2.07
2023-04-21T23:33:09.687Z,2.67
2023-04-21T23:35:11.437Z,2.77
2023-04-21T23:37:13.078Z,1.67
2023-04-21T23:39:14.802Z,1.60
2023-04-21T23:41:16.680Z,2.33
2023-04-21T23:43:18.443Z,1.70
2023-04-21T23:45:20.188Z,2.03
2023-04-21T23:47:21.921Z,1.70
2023-04-21T23:49:23.664Z,2.13
2023-04-21T23:51:25.432Z,2.03
2023-04-21T23:53:27.171Z,2.40
2023-04-21T23:55:29.029Z,1.90
2023-04-21T23:57:30.744Z,3.73
2023-04-21T23:59:32.887Z,3.40
